Time;durP1;ratioP1;P1;durP2;ratioP2;P2;SDS_P1;SDS_P2;PMS_P1;PMS_P2;Temp;Humidity;BMP_temperature;BMP_pressure;BME280_temperature;BME280_humidity;BME280_pressure;Samples;Min_cycle;Max_cycle;Signal;HPM_P1;HPM_P2
2021/11/20 00:02:15;;;;;;;;;;;;;;;5.08;100.00;100964.84;4953618;28;19918;-87
2021/11/20 00:04:41;;;;;;;;;;;;;;;5.15;100.00;100963.09;4951463;29;19977;-87
2021/11/20 00:07:07;;;;;;;;;;;;;;;5.19;100.00;100956.94;4952172;29;20392;-84
2021/11/20 00:09:32;;;;;;;;;;;;;;;5.19;100.00;100956.94;4936441;28;19930;-87
2021/11/20 00:12:01;;;;;;;;;;;;;;;5.28;100.00;100948.16;4935938;29;19969;-86
2021/11/20 00:14:26;;;;;;;;;;;;;;;5.31;100.00;100948.16;4935979;29;19970;-87
2021/11/20 00:16:53;;;;;;;;;;;;;;;5.34;100.00;100937.63;4953192;28;19946;-87
2021/11/20 00:19:20;;;;;;;;;;;;;;;5.38;100.00;100943.78;4952055;28;19922;-87
2021/11/20 00:21:48;;;;;;;;;;;;;;;5.44;100.00;100946.34;4934824;29;19926;-87
2021/11/20 00:24:25;;;;;;;;;;;;;;;5.51;100.00;100942.84;4936240;29;19930;-84
2021/11/20 00:26:51;;;;;;;;;;;;;;;5.54;100.00;100940.22;4953466;28;19926;-88
2021/11/20 00:31:43;;;;;;;;;;;;;;;5.63;100.00;100934.91;4953545;29;20550;-84
2021/11/20 00:34:13;;;;;;;;;;;;;;;5.66;100.00;100938.41;4935988;29;19930;-86
2021/11/20 00:36:39;;;;;;;;;;;;;;;5.70;100.00;100934.91;4952604;29;19922;-91
2021/11/20 00:39:07;;;;;;;;;;;;;;;5.73;100.00;100937.50;4932924;29;19918;-87
2021/11/20 00:41:33;;;;;;;;;;;;;;;5.77;100.00;100932.19;4954930;28;20382;-83
2021/11/20 00:43:58;;;;;;;;;;;;;;;5.81;100.00;100933.09;4939633;29;19919;-84
2021/11/20 00:46:26;;;;;;;;;;;;;;;5.85;100.00;100926.91;4950570;28;20374;-92
2021/11/20 00:48:52;;;;;;;;;;;;;;;5.87;100.00;100933.06;4957040;28;20079;-83
2021/11/20 00:51:19;;;;;;;;;;;;;;;5.89;100.00;100926.03;4939273;29;20357;-83
2021/11/20 00:53:44;;;;;;;;;;;;;;;5.97;100.00;100928.66;4935356;29;20027;-85
2021/11/20 00:56:10;;;;;;;;;;;;;;;6.06;100.00;100923.31;4937212;29;20018;-84
2021/11/20 00:58:36;;;;;;;;;;;;;;;6.14;100.00;100925.91;4935854;29;20283;-89
2021/11/20 01:01:02;;;;;;;;;;;;;;;6.20;100.00;100923.22;4936558;29;20377;-84
2021/11/20 01:03:28;;;;;;;;;;;;;;;6.23;100.00;100917.09;4935898;29;20397;-85
2021/11/20 01:05:54;;;;;;;;;;;;;;;6.23;100.00;100925.84;4937638;29;19923;-84
2021/11/20 01:08:21;;;;;;;;;;;;;;;6.23;100.00;100922.34;4936391;29;20382;-82
2021/11/20 01:10:48;;;;;;;;;;;;;;;6.20;100.00;100925.00;4935710;29;20033;-83
2021/11/20 01:13:14;;;;;;;;;;;;;;;6.15;100.00;100922.38;4951369;29;19919;-87
2021/11/20 01:15:45;;;;;;;;;;;;;;;6.00;100.00;100918.97;4935990;29;20370;-84
2021/11/20 01:18:11;;;;;;;;;;;;;;;5.98;99.48;100925.13;4936011;29;20405;-85
2021/11/20 01:20:37;;;;;;;;;;;;;;;5.76;98.32;100924.31;4936215;29;19987;-83
2021/11/20 01:23:02;;;;;;;;;;;;;;;5.53;97.23;100925.31;4950823;28;20391;-83
2021/11/20 01:25:28;;;;;;;;;;;;;;;5.33;96.71;100929.75;4935699;29;19930;-84
2021/11/20 01:27:53;;;;;;;;;;;;;;;5.22;96.96;100927.19;4937541;29;19923;-85
2021/11/20 01:30:19;;;;;;;;;;;;;;;5.17;98.13;100921.03;4935743;29;20059;-83
2021/11/20 01:32:45;;;;;;;;;;;;;;;5.24;99.59;100921.03;4936080;29;19927;-91
2021/11/20 01:35:10;;;;;;;;;;;;;;;5.35;100.00;100921.00;4937093;29;20421;-88
2021/11/20 01:37:36;;;;;;;;;;;;;;;5.53;100.00;100919.19;4935606;29;19927;-86
2021/11/20 01:40:04;;;;;;;;;;;;;;;5.70;100.00;100916.50;4935836;29;19957;-87
2021/11/20 01:42:31;;;;;;;;;;;;;;;5.94;100.00;100910.22;4935238;29;20022;-83
2021/11/20 01:45:08;;;;;;;;;;;;;;;6.06;100.00;100907.53;4935314;29;19922;-86
2021/11/20 01:47:39;;;;;;;;;;;;;;;6.24;100.00;100906.53;4950718;29;20275;-85
2021/11/20 01:50:07;;;;;;;;;;;;;;;6.35;100.00;100909.06;4935464;29;19929;-89
2021/11/20 01:52:38;;;;;;;;;;;;;;;6.49;100.00;100903.72;4935140;29;19997;-84
2021/11/20 01:55:23;;;;;;;;;;;;;;;6.48;100.00;100897.56;4935011;29;20371;-84
2021/11/20 01:57:59;;;;;;;;;;;;;;;6.60;100.00;100903.63;4936407;29;20363;-86
2021/11/20 02:00:43;;;;;;;;;;;;;;;6.60;100.00;100901.00;4934536;29;19923;-86
2021/11/20 02:03:28;;;;;;;;;;;;;;;6.66;100.00;100899.16;4935234;29;19926;-88
2021/11/20 02:06:12;;;;;;;;;;;;;;;6.70;100.00;100898.25;4951514;28;19926;-87
2021/11/20 02:08:54;;;;;;;;;;;;;;;6.80;100.00;100887.66;4934482;29;19978;-85
2021/11/20 02:11:31;;;;;;;;;;;;;;;6.83;100.00;100892.84;4936344;29;19975;-86
2021/11/20 02:13:57;;;;;;;;;;;;;;;6.89;100.00;100890.16;4936384;29;19923;-85
2021/11/20 02:16:25;;;;;;;;;;;;;;;6.91;100.00;100894.53;4935002;29;19934;-83
2021/11/20 02:18:53;;;;;;;;;;;;;;;6.94;100.00;100888.38;4934848;29;19930;-86
2021/11/20 02:21:31;;;;;;;;;;;;;;;6.97;100.00;100883.06;4950789;29;20018;-89
2021/11/20 02:23:56;;;;;;;;;;;;;;;7.00;100.00;100883.03;4936068;29;19946;-87
2021/11/20 02:26:21;;;;;;;;;;;;;;;7.07;100.00;100884.72;4934781;29;20375;-88
2021/11/20 02:28:47;;;;;;;;;;;;;;;7.15;100.00;100881.09;4934763;29;19927;-84
2021/11/20 02:31:16;;;;;;;;;;;;;;;7.17;100.00;100872.31;4936284;29;20017;-86
2021/11/20 02:33:43;;;;;;;;;;;;;;;7.18;100.00;100874.06;4934155;29;19926;-88
2021/11/20 02:36:10;;;;;;;;;;;;;;;7.25;100.00;100866.94;4951016;28;19915;-85
2021/11/20 02:38:35;;;;;;;;;;;;;;;7.25;100.00;100862.53;4934701;29;19985;-88
2021/11/20 02:41:01;;;;;;;;;;;;;;;7.27;100.00;100859.88;4935166;29;20049;-85
2021/11/20 02:43:28;;;;;;;;;;;;;;;7.28;100.00;100853.72;4934831;29;19922;-85
2021/11/20 02:45:54;;;;;;;;;;;;;;;7.37;100.00;100847.44;4934849;29;20371;-86
2021/11/20 02:48:20;;;;;;;;;;;;;;;7.37;100.00;100837.81;4936429;29;19922;-86
2021/11/20 02:50:45;;;;;;;;;;;;;;;7.39;100.00;100837.78;4934984;29;19919;-85
2021/11/20 02:53:13;;;;;;;;;;;;;;;7.45;100.00;100830.66;4933708;29;19926;-85
2021/11/20 02:55:43;;;;;;;;;;;;;;;7.43;100.00;100821.88;4934934;29;19961;-89
2021/11/20 02:58:09;;;;;;;;;;;;;;;7.49;100.00;100827.97;4950564;29;19981;-87
2021/11/20 03:00:34;;;;;;;;;;;;;;;7.48;100.00;100821.81;4935673;29;20378;-84
2021/11/20 03:02:59;;;;;;;;;;;;;;;7.51;100.00;100813.84;4935634;29;19919;-85
2021/11/20 03:05:25;;;;;;;;;;;;;;;7.54;100.00;100805.03;4934753;29;19929;-84
2021/11/20 03:07:50;;;;;;;;;;;;;;;7.61;100.00;100811.97;4932926;29;20012;-88
2021/11/20 03:10:15;;;;;;;;;;;;;;;7.87;100.00;100800.19;4936388;29;19982;-90
2021/11/20 03:12:41;;;;;;;;;;;;;;;7.78;100.00;100793.25;4934924;29;19974;-88
2021/11/20 04:16:18;;;;;;;;;;;;;;;2.70;100.00;100782.59;4923933;29;20005;-90
2021/11/20 04:18:45;;;;;;;;;;;;;;;2.63;100.00;100791.31;4968718;28;20013;-84
2021/11/20 04:21:10;;;;;;;;;;;;;;;2.53;100.00;100785.13;4952344;29;19942;-84
2021/11/20 04:23:36;;;;;;;;;;;;;;;2.39;100.00;100775.44;4952816;28;19922;-84
2021/11/20 04:26:04;;;;;;;;;;;;;;;2.25;100.00;100773.63;4954097;29;19918;-84
2021/11/20 04:28:29;;;;;;;;;;;;;;;2.29;100.00;100766.66;4953294;29;19923;-91
2021/11/20 04:30:54;;;;;;;;;;;;;;;2.06;100.00;100767.38;4951230;29;19921;-87
2021/11/20 04:33:20;;;;;;;;;;;;;;;2.07;100.00;100763.88;4952084;28;20064;-86
2021/11/20 04:35:45;;;;;;;;;;;;;;;1.94;99.48;100760.31;4953747;29;19919;-83
2021/11/20 04:38:11;;;;;;;;;;;;;;;1.85;99.07;100761.97;4952590;29;20402;-86
2021/11/20 04:40:37;;;;;;;;;;;;;;;1.86;98.63;100754.16;4953662;28;19925;-83
2021/11/20 04:43:02;;;;;;;;;;;;;;;1.71;97.87;100754.00;4953848;29;20325;-83
2021/11/20 04:45:31;;;;;;;;;;;;;;;1.62;97.45;100749.59;4952340;28;19927;-91
2021/11/20 04:47:56;;;;;;;;;;;;;;;1.79;97.90;100749.75;4952396;28;19933;-83
2021/11/20 04:50:22;;;;;;;;;;;;;;;2.13;99.31;100755.22;4953511;29;20005;-86
2021/11/20 04:52:47;;;;;;;;;;;;;;;2.53;100.00;100752.84;4952403;29;20382;-90
2021/11/20 04:55:13;;;;;;;;;;;;;;;2.76;100.00;100757.31;4944382;29;20369;-84
2021/11/20 04:57:39;;;;;;;;;;;;;;;2.86;100.00;100752.16;4952407;29;19942;-84
2021/11/20 05:00:24;;;;;;;;;;;;;;;2.90;100.00;100753.03;4951122;28;20382;-86
2021/11/20 05:02:50;;;;;;;;;;;;;;;3.02;100.00;100744.34;4952138;29;19918;-85
2021/11/20 05:05:15;;;;;;;;;;;;;;;3.02;100.00;100742.59;4952201;28;19997;-85
2021/11/20 05:07:41;;;;;;;;;;;;;;;3.20;100.00;100746.16;4966810;28;19950;-84
2021/11/20 05:10:07;;;;;;;;;;;;;;;3.73;100.00;100732.22;4952117;29;19922;-85
2021/11/20 05:12:32;;;;;;;;;;;;;;;3.82;100.00;100737.47;4953536;28;19952;-85
2021/11/20 05:14:57;;;;;;;;;;;;;;;3.69;100.00;100727.00;4952127;29;19926;-83
2021/11/20 05:17:23;;;;;;;;;;;;;;;3.62;100.00;100731.34;4953143;28;19926;-86
2021/11/20 05:19:49;;;;;;;;;;;;;;;3.54;100.00;100730.47;4953330;28;19973;-92
2021/11/20 05:22:14;;;;;;;;;;;;;;;3.50;100.00;100723.50;4952069;28;19922;-82
2021/11/20 05:24:40;;;;;;;;;;;;;;;3.43;100.00;100715.63;4954163;28;19919;-82
2021/11/20 05:27:06;;;;;;;;;;;;;;;3.48;100.00;100714.75;4956890;29;19926;-84
2021/11/20 05:29:50;;;;;;;;;;;;;;;3.49;100.00;100716.50;4954625;28;19922;-83
2021/11/20 05:32:16;;;;;;;;;;;;;;;3.49;100.00;100711.25;4956673;28;20373;-82
2021/11/20 05:34:41;;;;;;;;;;;;;;;3.45;100.00;100708.63;4956716;28;19918;-83
2021/11/20 05:37:06;;;;;;;;;;;;;;;3.32;100.00;100708.63;4955330;29;19921;-82
2021/11/20 05:39:32;;;;;;;;;;;;;;;3.39;100.00;100706.00;4955335;29;19918;-83
2021/11/20 05:41:58;;;;;;;;;;;;;;;3.39;100.00;100711.25;4955255;28;19923;-84
2021/11/20 05:44:23;;;;;;;;;;;;;;;3.32;100.00;100712.13;4949369;29;19926;-82
2021/11/20 05:46:50;;;;;;;;;;;;;;;3.43;100.00;100714.75;4955319;28;19922;-91
2021/11/20 05:49:16;;;;;;;;;;;;;;;3.44;100.00;100709.50;4955211;28;19929;-82
2021/11/20 05:51:41;;;;;;;;;;;;;;;3.38;100.00;100704.28;4956625;29;19922;-82
2021/11/20 05:54:06;;;;;;;;;;;;;;;3.38;100.00;100703.38;4955214;29;20008;-83
2021/11/20 08:54:57;;;;;;;;;;;;;;;3.47;89.38;100629.16;5203700;23;19930;-85
2021/11/20 08:57:25;;;;;;;;;;;;;;;3.42;89.37;100618.69;4936975;29;19922;-84
2021/11/20 08:59:50;;;;;;;;;;;;;;;3.44;89.52;100617.78;4937302;29;20033;-84
2021/11/20 09:02:16;;;;;;;;;;;;;;;3.50;89.49;100616.06;4955733;28;20017;-85
2021/11/20 09:04:51;;;;;;;;;;;;;;;3.53;89.70;100619.56;4940121;29;19954;-84
2021/11/20 09:07:24;;;;;;;;;;;;;;;3.51;89.40;100609.94;4957243;28;19919;-85
2021/11/20 09:10:00;;;;;;;;;;;;;;;3.55;89.14;100615.16;4937989;29;19919;-87
2021/11/20 09:12:28;;;;;;;;;;;;;;;3.54;89.02;100610.81;4956009;28;20322;-83
2021/11/20 09:14:58;;;;;;;;;;;;;;;3.54;88.89;100617.78;4957089;28;19965;-83
2021/11/20 09:17:24;;;;;;;;;;;;;;;3.58;88.87;100616.94;4939673;28;20329;-84
2021/11/20 09:19:49;;;;;;;;;;;;;;;3.63;88.53;100615.16;4939907;29;19918;-83
2021/11/20 09:22:15;;;;;;;;;;;;;;;3.68;87.95;100612.53;4956858;29;19977;-82
2021/11/20 09:24:42;;;;;;;;;;;;;;;3.67;87.44;100609.06;4955805;28;20001;-86
2021/11/20 09:27:08;;;;;;;;;;;;;;;3.61;87.29;100609.94;4956928;29;19928;-82
2021/11/20 09:29:34;;;;;;;;;;;;;;;3.63;87.43;100605.53;4956714;28;19929;-84
2021/11/20 09:32:00;;;;;;;;;;;;;;;3.72;87.88;100604.69;4956885;28;19925;-83
2021/11/20 09:34:25;;;;;;;;;;;;;;;3.73;87.28;100610.78;4956668;28;19923;-85
2021/11/20 09:36:52;;;;;;;;;;;;;;;3.70;87.38;100611.69;4956815;28;19918;-83
2021/11/20 09:39:19;;;;;;;;;;;;;;;3.70;86.94;100619.53;4954120;29;19970;-82
2021/11/20 09:42:03;;;;;;;;;;;;;;;3.65;86.62;100621.28;4939359;29;19922;-81
2021/11/20 09:44:30;;;;;;;;;;;;;;;3.63;86.44;100610.78;4956405;28;19925;-84
2021/11/20 09:47:01;;;;;;;;;;;;;;;3.70;86.71;100614.31;4956750;28;19962;-83
2021/11/20 09:49:31;;;;;;;;;;;;;;;3.66;86.05;100609.91;4956218;28;19976;-87
2021/11/20 09:51:57;;;;;;;;;;;;;;;3.68;86.13;100618.66;4956482;28;19919;-81
2021/11/20 09:54:35;;;;;;;;;;;;;;;3.67;86.08;100616.03;4937680;29;19918;-88
2021/11/20 09:57:09;;;;;;;;;;;;;;;3.68;86.00;100616.03;4939283;29;19966;-82
2021/11/20 09:59:47;;;;;;;;;;;;;;;3.72;86.11;100612.53;4955788;28;20359;-84
2021/11/20 10:02:30;;;;;;;;;;;;;;;3.73;86.27;100606.41;4954110;28;19919;-86
2021/11/20 10:04:55;;;;;;;;;;;;;;;3.75;86.40;100601.16;4956282;28;19923;-82
2021/11/20 10:07:30;;;;;;;;;;;;;;;3.78;86.48;100604.66;4938974;29;20263;-84
2021/11/20 10:09:59;;;;;;;;;;;;;;;3.78;86.21;100609.91;4954264;28;19922;-81
2021/11/20 10:12:31;;;;;;;;;;;;;;;3.80;86.29;100605.53;4955438;28;19929;-85
2021/11/20 10:15:10;;;;;;;;;;;;;;;3.90;86.12;100603.75;4954400;28;19922;-85
2021/11/20 10:17:48;;;;;;;;;;;;;;;3.89;86.41;100599.38;4955808;28;19929;-82
2021/11/20 10:20:22;;;;;;;;;;;;;;;3.92;86.35;100591.50;4956020;28;20006;-84
2021/11/20 10:22:50;;;;;;;;;;;;;;;3.94;86.31;100597.63;4955694;28;20607;-86
2021/11/20 10:25:18;;;;;;;;;;;;;;;3.95;86.41;100594.13;4954059;28;20293;-84
2021/11/20 10:27:56;;;;;;;;;;;;;;;3.96;86.58;100601.13;4938598;28;20500;-82
2021/11/20 10:30:33;;;;;;;;;;;;;;;4.03;86.68;100588.00;4938557;29;19925;-88
2021/11/20 10:33:11;;;;;;;;;;;;;;;4.06;86.72;100578.34;4955454;28;19966;-83
2021/11/20 10:35:40;;;;;;;;;;;;;;;4.08;86.86;100580.97;4955703;28;20005;-85
2021/11/20 10:38:05;;;;;;;;;;;;;;;4.09;86.60;100580.09;4954568;28;20373;-82
2021/11/20 10:40:35;;;;;;;;;;;;;;;4.07;86.59;100577.50;4938218;28;19918;-86
2021/11/20 10:43:05;;;;;;;;;;;;;;;4.06;86.52;100573.13;4938317;29;20404;-85
2021/11/20 10:45:44;;;;;;;;;;;;;;;4.02;86.54;100579.25;4955185;28;19922;-88
2021/11/20 10:48:25;;;;;;;;;;;;;;;4.09;86.64;100573.09;4954719;28;21311;-87
2021/11/20 10:51:09;;;;;;;;;;;;;;;4.07;86.47;100559.13;4955380;28;20319;-83
2021/11/20 10:53:46;;;;;;;;;;;;;;;4.14;86.69;100558.22;4953776;28;19923;-85
2021/11/20 10:56:31;;;;;;;;;;;;;;;4.13;86.60;100551.25;4955308;28;19926;-89
2021/11/20 10:58:59;;;;;;;;;;;;;;;4.15;86.56;100552.09;4955565;28;19965;-86
2021/11/20 11:01:31;;;;;;;;;;;;;;;4.13;86.25;100542.47;4955046;28;19919;-84
2021/11/20 11:04:28;;;;;;;;;;;;;;;4.19;86.38;100537.22;4938678;28;19925;-85
2021/11/20 11:06:56;;;;;;;;;;;;;;;4.22;86.70;100539.81;4886260;28;19981;-83
2021/11/20 11:09:27;;;;;;;;;;;;;;;4.24;86.76;100531.94;4954019;28;20273;-86
2021/11/20 11:12:04;;;;;;;;;;;;;;;4.27;86.75;100529.31;4954931;28;19941;-85
2021/11/20 11:14:38;;;;;;;;;;;;;;;4.23;86.64;100523.22;4953176;28;20013;-82
2021/11/20 11:17:33;;;;;;;;;;;;;;;4.31;86.63;100517.94;4954952;28;19919;-84
2021/11/20 11:20:02;;;;;;;;;;;;;;;4.88;88.88;100507.03;4861215;29;20059;-84
2021/11/20 11:22:38;;;;;;;;;;;;;;;4.62;88.31;100494.09;4936812;28;19923;-82
2021/11/20 11:25:03;;;;;;;;;;;;;;;4.51;87.66;100486.28;4953318;28;20010;-87
2021/11/20 11:27:37;;;;;;;;;;;;;;;4.46;86.80;100488.09;4954988;28;19997;-84
2021/11/20 11:30:03;;;;;;;;;;;;;;;4.49;87.00;100481.06;4952976;28;20018;-84
2021/11/20 11:32:29;;;;;;;;;;;;;;;6.43;91.66;100469.34;4937347;29;19997;-90
2021/11/20 11:34:59;;;;;;;;;;;;;;;6.90;92.34;100459.84;4954554;28;19953;-86
2021/11/20 11:37:29;;;;;;;;;;;;;;;7.34;91.89;100445.00;4937294;29;20009;-88
2021/11/20 11:39:59;;;;;;;;;;;;;;;7.20;91.92;100442.59;4951835;29;20461;-84
2021/11/20 11:42:27;;;;;;;;;;;;;;;7.07;91.75;100439.34;4937220;29;19919;-85
2021/11/20 11:44:52;;;;;;;;;;;;;;;6.93;92.43;100441.34;4953771;28;20522;-88
2021/11/20 11:47:17;;;;;;;;;;;;;;;7.01;94.91;100436.81;4936752;29;19995;-84
2021/11/20 11:50:00;;;;;;;;;;;;;;;7.53;98.73;100434.97;4937270;28;20013;-83
2021/11/20 11:52:44;;;;;;;;;;;;;;;8.08;100.00;100430.28;4954249;28;20013;-83
2021/11/20 11:55:15;;;;;;;;;;;;;;;8.31;100.00;100424.47;4951819;28;19922;-90
2021/11/20 11:57:59;;;;;;;;;;;;;;;8.48;100.00;100421.44;4936852;28;19922;-86
2021/11/20 12:00:30;;;;;;;;;;;;;;;8.64;100.00;100418.44;4954432;28;19922;-86
2021/11/20 12:02:57;;;;;;;;;;;;;;;8.85;100.00;100404.69;4953008;28;20282;-88
2021/11/20 12:05:28;;;;;;;;;;;;;;;9.04;100.00;100404.19;4952559;28;20334;-85
2021/11/20 12:07:56;;;;;;;;;;;;;;;9.01;100.00;100406.94;4952459;28;19922;-89
2021/11/20 12:10:22;;;;;;;;;;;;;;;9.01;100.00;100396.34;4951134;29;20008;-87
2021/11/20 12:12:54;;;;;;;;;;;;;;;9.03;100.00;100383.94;4937191;28;20013;-88
2021/11/20 12:15:19;;;;;;;;;;;;;;;9.13;100.00;100369.59;4952679;28;19933;-86
2021/11/20 12:17:50;;;;;;;;;;;;;;;9.16;100.00;100366.88;4936723;28;20033;-85
2021/11/20 12:20:24;;;;;;;;;;;;;;;9.23;100.00;100371.06;4954117;29;20437;-84
2021/11/20 12:23:12;;;;;;;;;;;;;;;9.25;100.00;100358.69;4952395;28;19973;-85
2021/11/20 12:25:37;;;;;;;;;;;;;;;9.24;100.00;100354.28;4952189;28;19922;-83
2021/11/20 12:28:05;;;;;;;;;;;;;;;9.26;100.00;100351.59;4953994;28;19926;-89
2021/11/20 12:30:42;;;;;;;;;;;;;;;9.45;100.00;100355.44;4953866;28;19919;-87
2021/11/20 12:33:07;;;;;;;;;;;;;;;9.63;100.00;100348.72;4953568;28;19981;-90
2021/11/20 12:35:41;;;;;;;;;;;;;;;9.72;100.00;100339.66;4940860;29;19926;-85
2021/11/20 12:38:25;;;;;;;;;;;;;;;9.84;100.00;100335.75;4954990;29;19958;-88
2021/11/20 12:40:58;;;;;;;;;;;;;;;9.91;100.00;100326.72;4957570;28;20025;-84
2021/11/20 12:43:47;;;;;;;;;;;;;;;10.03;100.00;100324.59;4940380;29;19918;-88
2021/11/20 12:46:19;;;;;;;;;;;;;;;10.11;100.00;100319.94;4957467;28;20017;-85
2021/11/20 12:48:49;;;;;;;;;;;;;;;10.17;100.00;100314.44;4955419;28;20416;-86
2021/11/20 12:51:17;;;;;;;;;;;;;;;10.01;100.00;100311.41;4956381;29;19926;-87
2021/11/20 12:53:57;;;;;;;;;;;;;;;9.91;100.00;100308.19;4954915;28;19925;-88
2021/11/20 12:56:33;;;;;;;;;;;;;;;9.91;100.00;100308.19;4938586;29;19929;-86
2021/11/20 12:59:03;;;;;;;;;;;;;;;9.90;100.00;100300.31;4940025;28;19923;-87
2021/11/20 13:01:36;;;;;;;;;;;;;;;9.94;100.00;100293.97;4957659;28;19930;-84
2021/11/20 13:04:10;;;;;;;;;;;;;;;9.94;100.00;100292.22;4957827;28;20029;-83
2021/11/20 13:06:41;;;;;;;;;;;;;;;9.96;100.00;100292.19;4939230;29;19934;-84
2021/11/20 13:09:18;;;;;;;;;;;;;;;10.00;100.00;100291.13;4955238;28;20299;-86
2021/11/20 13:11:48;;;;;;;;;;;;;;;10.02;100.00;100299.03;4939870;28;19918;-84
2021/11/20 13:14:21;;;;;;;;;;;;;;;10.04;100.00;100294.59;4956009;28;19925;-84
2021/11/20 13:16:57;;;;;;;;;;;;;;;10.04;100.00;100292.78;4956150;28;19918;-84
2021/11/20 13:19:24;;;;;;;;;;;;;;;10.06;100.00;100283.00;4939804;29;20389;-86
2021/11/20 13:21:50;;;;;;;;;;;;;;;10.11;100.00;100288.16;4957050;28;19922;-88
2021/11/20 13:24:18;;;;;;;;;;;;;;;10.10;100.00;100287.28;4955991;28;20001;-87
2021/11/20 13:29:32;;;;;;;;;;;;;;;10.06;100.00;100271.56;4956836;28;19965;-86
2021/11/20 13:31:59;;;;;;;;;;;;;;;10.12;99.98;100274.00;4954826;28;19970;-86
2021/11/20 13:34:25;;;;;;;;;;;;;;;10.15;99.47;100260.66;4955600;29;19918;-84
2021/11/20 13:36:50;;;;;;;;;;;;;;;10.13;99.38;100259.81;4939756;28;20396;-84
2021/11/20 13:39:15;;;;;;;;;;;;;;;10.13;99.00;100255.41;4938210;29;20286;-84
2021/11/20 13:41:40;;;;;;;;;;;;;;;10.18;98.75;100257.91;4939488;29;19929;-88
2021/11/20 13:44:07;;;;;;;;;;;;;;;10.19;98.50;100249.03;4956756;28;19919;-85
2021/11/20 13:46:33;;;;;;;;;;;;;;;10.19;98.59;100243.75;4938666;29;20005;-84
2021/11/20 13:49:04;;;;;;;;;;;;;;;10.22;98.23;100237.47;4939374;28;19994;-84
2021/11/20 13:51:30;;;;;;;;;;;;;;;10.25;97.82;100238.25;4938572;29;20289;-84
2021/11/20 13:53:57;;;;;;;;;;;;;;;10.23;98.11;100232.13;4937904;28;19918;-84
2021/11/20 13:56:23;;;;;;;;;;;;;;;10.25;97.87;100238.25;4938988;29;20005;-85
2021/11/20 13:58:56;;;;;;;;;;;;;;;10.25;97.33;100232.94;4956319;28;20366;-84
2021/11/20 14:01:21;;;;;;;;;;;;;;;10.30;96.72;100230.13;4954298;29;19958;-84
2021/11/20 14:03:57;;;;;;;;;;;;;;;10.28;96.32;100227.53;4956016;28;19923;-84
2021/11/20 14:06:23;;;;;;;;;;;;;;;10.36;95.61;100228.16;4938516;29;20017;-91
2021/11/20 14:08:48;;;;;;;;;;;;;;;10.37;95.35;100229.06;4937426;28;20005;-85
2021/11/20 14:11:17;;;;;;;;;;;;;;;10.51;94.70;100218.84;4956059;28;19919;-84
2021/11/20 14:13:43;;;;;;;;;;;;;;;10.55;94.47;100211.63;4955699;28;20197;-91
2021/11/20 14:16:08;;;;;;;;;;;;;;;10.61;94.08;100202.56;4956254;28;19918;-90
2021/11/20 14:18:46;;;;;;;;;;;;;;;10.66;93.73;100201.50;4956221;28;19926;-90
2021/11/20 14:21:11;;;;;;;;;;;;;;;10.72;92.99;100190.69;4955826;28;19919;-88
2021/11/20 14:23:39;;;;;;;;;;;;;;;10.77;92.59;100190.50;4954747;28;19981;-84
2021/11/20 14:26:06;;;;;;;;;;;;;;;10.85;91.95;100192.84;4955297;28;20259;-87
2021/11/20 14:28:42;;;;;;;;;;;;;;;11.07;90.61;100185.84;4955744;28;19918;-84
2021/11/20 14:31:12;;;;;;;;;;;;;;;11.17;89.75;100183.69;4955851;28;19922;-87
2021/11/20 14:33:48;;;;;;;;;;;;;;;11.17;88.59;100178.38;4955794;28;19926;-85
2021/11/20 14:36:13;;;;;;;;;;;;;;;11.30;88.14;100173.47;4955222;28;20412;-88
2021/11/20 14:38:47;;;;;;;;;;;;;;;11.35;87.85;100165.31;4937303;29;19918;-85
2021/11/20 14:41:13;;;;;;;;;;;;;;;11.33;87.37;100169.78;4953830;29;19918;-87
2021/11/20 14:43:38;;;;;;;;;;;;;;;11.27;87.28;100165.63;4955746;29;19926;-84
2021/11/20 14:46:17;;;;;;;;;;;;;;;11.26;87.22;100150.63;4938617;28;20021;-87
2021/11/20 14:48:42;;;;;;;;;;;;;;;11.25;87.00;100146.25;4955719;28;20254;-90
2021/11/20 14:51:08;;;;;;;;;;;;;;;11.20;87.01;100142.91;4938546;29;19922;-90
2021/11/20 14:53:34;;;;;;;;;;;;;;;11.30;86.58;100138.97;4937772;29;19919;-92
2021/11/20 14:56:12;;;;;;;;;;;;;;;11.50;85.50;100132.84;4955785;28;19977;-88
2021/11/20 14:58:37;;;;;;;;;;;;;;;11.58;84.76;100143.13;4953074;28;19927;-88
2021/11/20 15:01:03;;;;;;;;;;;;;;;11.59;84.42;100136.91;4938826;28;20425;-84
2021/11/20 15:03:30;;;;;;;;;;;;;;;11.47;84.71;100134.75;4939192;29;19925;-91
2021/11/20 15:05:56;;;;;;;;;;;;;;;11.43;84.67;100129.56;4953698;28;19926;-86
2021/11/20 15:08:21;;;;;;;;;;;;;;;11.39;84.89;100128.00;4936928;29;19926;-88
2021/11/20 15:10:47;;;;;;;;;;;;;;;11.42;84.71;100132.28;4938115;29;20382;-89
2021/11/20 15:13:12;;;;;;;;;;;;;;;11.44;84.55;100131.31;4937892;28;19919;-84
2021/11/20 15:15:38;;;;;;;;;;;;;;;11.54;84.23;100122.97;4938020;29;19930;-83
2021/11/20 15:18:03;;;;;;;;;;;;;;;11.69;83.48;100121.47;4937604;28;20362;-85
2021/11/20 15:20:28;;;;;;;;;;;;;;;11.77;83.09;100109.56;4955402;28;19951;-87
2021/11/20 15:22:54;;;;;;;;;;;;;;;11.73;82.88;100102.69;4937848;29;19918;-85
2021/11/20 15:25:20;;;;;;;;;;;;;;;11.66;83.17;100109.19;4936447;29;19940;-89
2021/11/20 15:27:45;;;;;;;;;;;;;;;11.61;83.28;100105.84;4954997;28;19962;-87
2021/11/20 15:30:11;;;;;;;;;;;;;;;11.60;83.34;100104.16;4937695;28;20351;-84
2021/11/20 15:32:37;;;;;;;;;;;;;;;11.58;83.53;100101.56;4952284;29;20480;-85
2021/11/20 15:35:03;;;;;;;;;;;;;;;11.60;83.36;100098.84;4936259;29;19922;-88
2021/11/20 15:37:28;;;;;;;;;;;;;;;11.73;82.91;100099.19;4937890;29;19918;-84
2021/11/20 15:39:53;;;;;;;;;;;;;;;11.80;82.68;100098.81;4935865;29;19919;-84
2021/11/20 15:42:19;;;;;;;;;;;;;;;11.85;82.25;100097.78;4937417;29;19923;-86
2021/11/20 15:44:45;;;;;;;;;;;;;;;11.73;82.51;100089.41;4937258;29;19918;-84
2021/11/20 15:47:10;;;;;;;;;;;;;;;11.66;82.79;100087.09;4954518;28;19923;-93
2021/11/20 15:49:35;;;;;;;;;;;;;;;11.58;83.22;100082.09;4954446;28;19926;-86
2021/11/20 15:52:01;;;;;;;;;;;;;;;11.54;83.58;100083.19;4954651;28;20429;-87
2021/11/20 15:54:28;;;;;;;;;;;;;;;11.53;83.61;100076.97;4952901;28;20397;-85
2021/11/20 15:56:53;;;;;;;;;;;;;;;11.66;83.20;100081.78;4954610;28;20266;-90
2021/11/20 15:59:18;;;;;;;;;;;;;;;11.79;82.71;100078.53;4954227;28;19918;-88
2021/11/20 16:01:45;;;;;;;;;;;;;;;11.87;82.14;100069.38;4954038;28;20289;-86
2021/11/20 16:04:10;;;;;;;;;;;;;;;11.76;82.36;100073.38;4954466;28;20370;-84
2021/11/20 16:06:36;;;;;;;;;;;;;;;11.74;82.53;100071.69;4954225;28;19919;-87
2021/11/20 16:09:01;;;;;;;;;;;;;;;11.72;82.72;100073.56;4935497;29;19944;-85
2021/11/20 16:11:26;;;;;;;;;;;;;;;11.72;82.82;100071.75;4954228;28;19926;-89
2021/11/20 16:13:52;;;;;;;;;;;;;;;11.74;82.63;100069.91;4937277;29;20024;-88
2021/11/20 16:16:17;;;;;;;;;;;;;;;11.74;82.79;100061.06;4953835;28;19926;-86
2021/11/20 16:18:43;;;;;;;;;;;;;;;11.90;82.14;100061.25;4954420;28;19923;-86
2021/11/20 16:21:10;;;;;;;;;;;;;;;12.08;81.67;100057.00;4953758;28;19934;-87
2021/11/20 16:23:36;;;;;;;;;;;;;;;12.24;81.55;100046.50;4952438;28;19927;-85
2021/11/20 16:26:02;;;;;;;;;;;;;;;9.78;80.23;100058.06;4953911;28;19942;-85
2021/11/20 16:28:27;;;;;;;;;;;;;;;8.17;81.01;100057.00;4936537;28;19926;-84
2021/11/20 16:30:52;;;;;;;;;;;;;;;7.36;82.30;100060.06;4952708;29;19981;-87
2021/11/20 16:33:18;;;;;;;;;;;;;;;6.88;83.11;100051.53;4953234;28;19946;-84
2021/11/20 16:35:43;;;;;;;;;;;;;;;6.59;83.21;100046.94;4953680;28;19974;-84
2021/11/20 16:38:08;;;;;;;;;;;;;;;6.31;83.93;100050.16;4951468;28;20267;-88
2021/11/20 16:40:33;;;;;;;;;;;;;;;6.07;83.97;100045.41;4953679;28;19922;-85
2021/11/20 16:42:59;;;;;;;;;;;;;;;5.87;84.36;100057.19;4953559;29;19922;-86
2021/11/20 16:45:24;;;;;;;;;;;;;;;5.68;84.86;100053.13;4935795;29;19934;-90
2021/11/20 16:47:49;;;;;;;;;;;;;;;5.45;85.09;100043.91;4951606;28;19923;-85
2021/11/20 16:50:38;;;;;;;;;;;;;;;5.32;85.25;100042.41;4952518;29;20374;-86
2021/11/20 16:53:01;;;;;;;;;;;;;;;5.02;85.60;100039.38;4951725;28;20366;-83
2021/11/20 16:55:27;;;;;;;;;;;;;;;4.98;85.43;100035.06;4933985;29;19982;-82